Time;durP1;ratioP1;P1;durP2;ratioP2;P2;SDS_P1;SDS_P2;PMS_P1;PMS_P2;Temp;Humidity;BMP_temperature;BMP_pressure;BME280_temperature;BME280_humidity;BME280_pressure;Samples;Min_cycle;Max_cycle;Signal;HPM_P1;HPM_P2
2021/01/05 00:00:21;;;;;;;38.38;22.92;;;;;;;-1.69;100.00;95212.41;1044574;28;20020;-71
2021/01/05 00:00:52;;;;;;;41.32;23.16;;;;;;;-1.74;100.00;95201.47;1028131;28;20023;-72
2021/01/05 00:01:23;;;;;;;40.45;23.95;;;;;;;-1.62;100.00;95213.88;1032361;28;20396;-71
2021/01/05 00:01:54;;;;;;;37.65;23.77;;;;;;;-1.65;100.00;95213.97;1040416;28;20267;-71
2021/01/05 00:02:25;;;;;;;42.63;24.42;;;;;;;-1.62;100.00;95213.88;1032417;28;20471;-71
2021/01/05 00:02:56;;;;;;;38.00;22.52;;;;;;;-1.57;100.00;95217.13;1031940;28;20049;-72
2021/01/05 00:03:27;;;;;;;39.53;24.02;;;;;;;-1.63;100.00;95205.34;1036285;28;20026;-71
2021/01/05 00:03:57;;;;;;;39.15;22.92;;;;;;;-1.54;100.00;95208.47;1036359;28;20056;-71
2021/01/05 00:04:33;;;;;;;43.90;23.33;;;;;;;-1.54;100.00;95208.47;1028532;28;20022;-72
2021/01/05 00:05:04;;;;;;;37.28;23.10;;;;;;;-1.52;100.00;95210.13;1032072;28;20454;-71
2021/01/05 00:05:35;;;;;;;36.33;23.08;;;;;;;-1.48;100.00;95208.25;1036329;28;20268;-71
2021/01/05 00:06:06;;;;;;;36.50;22.73;;;;;;;-1.54;100.00;95204.16;1028349;28;20297;-72
2021/01/05 00:06:36;;;;;;;38.25;24.00;;;;;;;-1.52;100.00;95210.13;1036469;28;20121;-72
2021/01/05 00:07:08;;;;;;;37.00;22.25;;;;;;;-1.52;100.00;95210.13;1028234;28;20082;-71
2021/01/05 00:07:39;;;;;;;37.15;22.08;;;;;;;-1.59;100.00;95199.19;1040456;28;20478;-72
2021/01/05 00:08:09;;;;;;;37.80;21.95;;;;;;;-1.50;100.00;95210.03;1040505;28;20272;-72
2021/01/05 00:08:40;;;;;;;36.90;22.40;;;;;;;-1.43;100.00;95208.94;1040506;28;20025;-72
2021/01/05 00:09:11;;;;;;;35.20;21.80;;;;;;;-1.41;100.00;95214.84;1028183;28;20023;-72
2021/01/05 00:09:42;;;;;;;36.55;21.73;;;;;;;-1.42;100.00;95208.88;1032411;28;20155;-71
2021/01/05 00:10:12;;;;;;;35.50;21.67;;;;;;;-1.39;100.00;95211.34;1036329;28;20191;-71
2021/01/05 00:10:43;;;;;;;35.83;21.10;;;;;;;-1.42;100.00;95218.31;1032324;28;20049;-72
2021/01/05 00:11:14;;;;;;;35.13;22.15;;;;;;;-1.40;100.00;95212.22;1032225;28;20026;-72
2021/01/05 00:12:03;;;;;;;35.78;21.52;;;;;;;-1.36;100.00;95212.97;1028407;28;20139;-72
2021/01/05 00:12:34;;;;;;;39.25;21.75;;;;;;;-1.38;100.00;95213.00;1036485;28;20018;-71
2021/01/05 00:13:05;;;;;;;34.53;20.35;;;;;;;-1.38;100.00;95209.63;1036179;28;20264;-72
2021/01/05 00:13:35;;;;;;;34.13;21.58;;;;;;;-1.44;100.00;95200.41;1032468;28;20045;-71
2021/01/05 00:14:06;;;;;;;38.70;21.90;;;;;;;-1.43;100.00;95204.63;1040548;28;20041;-72
2021/01/05 00:14:46;;;;;;;32.00;20.45;;;;;;;-1.37;100.00;95207.00;1036453;28;20064;-71
2021/01/05 00:15:17;;;;;;;34.75;21.13;;;;;;;-1.38;100.00;95205.31;1040351;28;20112;-72
2021/01/05 00:15:48;;;;;;;36.70;22.30;;;;;;;-1.43;100.00;95212.34;1032219;28;20499;-72
2021/01/05 00:16:19;;;;;;;39.38;22.02;;;;;;;-1.51;100.00;95206.63;1028258;28;20368;-71
2021/01/05 00:16:50;;;;;;;38.90;22.75;;;;;;;-1.44;100.00;95209.84;1028318;28;20094;-71
2021/01/05 00:17:21;;;;;;;36.15;20.95;;;;;;;-1.44;100.00;95197.00;1032083;28;20093;-72
2021/01/05 00:17:52;;;;;;;34.55;21.58;;;;;;;-1.41;100.00;95209.72;1040365;28;20256;-72
2021/01/05 00:18:23;;;;;;;34.40;20.58;;;;;;;-1.45;100.00;95208.97;1036308;28;20256;-71
2021/01/05 00:18:53;;;;;;;36.55;22.48;;;;;;;-1.44;100.00;95207.28;1040435;28;20081;-71
2021/01/05 00:19:25;;;;;;;36.60;22.27;;;;;;;-1.42;100.00;95218.31;1040129;28;20160;-71
2021/01/05 00:19:55;;;;;;;39.40;21.95;;;;;;;-1.48;100.00;95211.69;1028333;28;20034;-71
2021/01/05 00:20:29;;;;;;;38.30;22.38;;;;;;;-1.49;100.00;95212.56;1032239;28;20287;-72
2021/01/05 00:20:59;;;;;;;41.53;22.85;;;;;;;-1.49;100.00;95207.41;1040450;28;20026;-72
2021/01/05 00:21:30;;;;;;;38.95;22.33;;;;;;;-1.48;100.00;95205.69;1020197;29;20338;-72
2021/01/05 00:22:01;;;;;;;37.63;23.00;;;;;;;-1.47;100.00;95209.94;1036378;28;20052;-72
2021/01/05 00:22:32;;;;;;;38.25;21.73;;;;;;;-1.47;100.00;95215.91;1024201;28;20078;-71
2021/01/05 00:23:03;;;;;;;37.28;21.55;;;;;;;-1.54;100.00;95209.28;1032452;28;20029;-72
2021/01/05 00:23:34;;;;;;;37.60;22.02;;;;;;;-1.55;100.00;95204.25;1040350;28;20013;-72
2021/01/05 00:24:05;;;;;;;37.33;21.38;;;;;;;-1.61;100.00;95211.25;1036349;28;20029;-71
2021/01/05 00:24:36;;;;;;;35.72;21.55;;;;;;;-1.67;100.00;95205.47;1028245;28;20031;-72
2021/01/05 00:25:08;;;;;;;32.85;19.90;;;;;;;-1.61;100.00;95210.44;1040502;28;20264;-71
2021/01/05 00:25:39;;;;;;;40.47;21.35;;;;;;;-1.55;100.00;95209.38;1032201;28;20026;-72
2021/01/05 00:26:09;;;;;;;38.70;22.15;;;;;;;-1.58;100.00;95197.47;1036415;28;20252;-72
2021/01/05 00:26:40;;;;;;;36.17;23.02;;;;;;;-1.61;100.00;95202.72;1036449;28;20026;-71
2021/01/05 00:27:11;;;;;;;35.95;22.20;;;;;;;-1.59;100.00;95204.34;1032400;28;20030;-72
2021/01/05 00:27:42;;;;;;;37.13;22.83;;;;;;;-1.61;100.00;95202.72;1040358;28;20029;-72
2021/01/05 00:28:13;;;;;;;33.80;22.27;;;;;;;-1.51;100.00;95198.94;1036263;28;20265;-71
2021/01/05 00:28:43;;;;;;;37.65;22.13;;;;;;;-1.53;100.00;95208.41;1036273;28;20025;-72
2021/01/05 00:29:14;;;;;;;39.28;22.05;;;;;;;-1.61;100.00;95205.28;1036386;28;20029;-71
2021/01/05 00:29:45;;;;;;;37.22;22.10;;;;;;;-1.60;100.00;95209.53;1032315;28;20022;-72
2021/01/05 00:30:19;;;;;;;35.17;21.08;;;;;;;-1.62;100.00;95211.31;1044483;28;20458;-72
2021/01/05 00:30:50;;;;;;;38.47;22.75;;;;;;;-1.56;100.00;95205.94;1040722;28;20025;-71
2021/01/05 00:31:20;;;;;;;39.53;22.98;;;;;;;-1.54;100.00;95211.88;1044668;28;20763;-71
2021/01/05 00:32:02;;;;;;;34.60;22.05;;;;;;;-1.54;100.00;95217.00;1044639;28;20092;-72
2021/01/05 00:32:33;;;;;;;36.85;21.60;;;;;;;-1.56;100.00;95211.09;1036357;28;20030;-72
2021/01/05 00:33:04;;;;;;;35.42;21.77;;;;;;;-1.52;100.00;95211.81;1028380;28;20262;-71
2021/01/05 00:33:34;;;;;;;37.47;22.60;;;;;;;-1.52;100.00;95204.13;1040459;28;20113;-72
2021/01/05 00:34:05;;;;;;;40.22;22.88;;;;;;;-1.68;100.00;95189.25;1027702;28;20719;-72
2021/01/05 00:34:36;;;;;;;45.88;24.88;;;;;;;-1.54;100.00;95209.28;1036138;28;20041;-71
2021/01/05 00:35:08;;;;;;;38.90;23.77;;;;;;;-1.49;100.00;95212.56;1032287;28;20022;-71
2021/01/05 00:35:39;;;;;;;37.33;22.58;;;;;;;-1.44;100.00;95210.66;1036315;28;20494;-72
2021/01/05 00:36:11;;;;;;;37.40;23.15;;;;;;;-1.42;100.00;95216.59;1032058;28;20416;-71
2021/01/05 00:36:41;;;;;;;37.88;22.50;;;;;;;-1.51;100.00;95213.50;1036318;28;20268;-72
2021/01/05 00:37:13;;;;;;;31.70;20.75;;;;;;;-1.53;100.00;95213.56;1036311;28;20269;-71
2021/01/05 00:37:44;;;;;;;37.05;21.35;;;;;;;-1.50;100.00;95212.59;1036350;28;20126;-72
2021/01/05 00:38:14;;;;;;;37.20;21.35;;;;;;;-1.52;100.00;95214.38;1036161;28;20478;-72
2021/01/05 00:38:45;;;;;;;32.75;21.48;;;;;;;-1.46;100.00;95215.03;1032162;28;20237;-71
2021/01/05 00:39:16;;;;;;;34.55;21.50;;;;;;;-1.45;100.00;95216.69;1036319;28;20073;-72
2021/01/05 00:39:47;;;;;;;35.40;21.88;;;;;;;-1.39;100.00;95223.34;1028212;28;20491;-72
2021/01/05 00:40:18;;;;;;;32.45;20.92;;;;;;;-1.37;100.00;95216.41;1032029;28;20403;-72
2021/01/05 00:40:49;;;;;;;36.10;20.90;;;;;;;-1.32;100.00;95218.84;1032207;28;20014;-71
2021/01/05 00:41:20;;;;;;;36.50;21.50;;;;;;;-1.26;100.00;95221.19;1032202;28;20289;-71
2021/01/05 00:41:50;;;;;;;35.95;21.25;;;;;;;-1.30;100.00;95217.88;1040332;28;20116;-71
2021/01/05 00:42:21;;;;;;;33.65;20.48;;;;;;;-1.44;100.00;95215.81;1040232;28;20260;-72
2021/01/05 00:42:52;;;;;;;33.20;20.95;;;;;;;-1.41;100.00;95223.41;1032097;28;20124;-72
2021/01/05 00:43:23;;;;;;;35.38;21.90;;;;;;;-1.46;100.00;95232.19;1040333;28;20433;-71
2021/01/05 00:43:54;;;;;;;32.60;20.42;;;;;;;-1.49;100.00;95225.41;1036287;28;20280;-72
2021/01/05 00:44:25;;;;;;;32.85;20.98;;;;;;;-1.55;100.00;95219.66;1032049;28;20033;-72
2021/01/05 00:44:55;;;;;;;32.90;20.42;;;;;;;-1.48;100.00;95229.66;1040213;28;20029;-71
2021/01/05 00:45:30;;;;;;;36.53;20.63;;;;;;;-1.48;100.00;95223.66;1044353;28;20440;-72
2021/01/05 00:46:01;;;;;;;32.78;21.10;;;;;;;-1.43;100.00;95226.91;1036229;28;20053;-72
2021/01/05 00:46:31;;;;;;;37.08;22.17;;;;;;;-1.53;100.00;95213.56;1039990;28;20271;-71
2021/01/05 00:47:03;;;;;;;31.63;20.20;;;;;;;-1.48;100.00;95229.66;1028077;28;20023;-72
2021/01/05 00:47:34;;;;;;;34.55;22.17;;;;;;;-1.43;100.00;95232.88;1036039;28;20049;-72
2021/01/05 00:48:05;;;;;;;38.20;21.50;;;;;;;-1.43;100.00;95238.03;1040293;28;20804;-72
2021/01/05 00:48:37;;;;;;;34.20;21.60;;;;;;;-1.44;100.00;95233.78;1031931;28;20022;-72
2021/01/05 00:49:08;;;;;;;34.45;20.80;;;;;;;-1.43;100.00;95229.47;1044361;28;20255;-71
2021/01/05 00:49:39;;;;;;;35.63;20.00;;;;;;;-1.52;100.00;95228.09;1031999;28;20269;-72
2021/01/05 00:50:10;;;;;;;35.85;21.00;;;;;;;-1.42;100.00;95234.56;1036216;28;20083;-71
2021/01/05 00:50:41;;;;;;;35.30;20.80;;;;;;;-1.42;100.00;95239.72;1035975;28;20017;-72
2021/01/05 00:51:12;;;;;;;36.78;21.35;;;;;;;-1.45;100.00;95239.81;1036065;28;20636;-72
2021/01/05 00:51:43;;;;;;;31.83;20.80;;;;;;;-1.51;100.00;95240.03;1040055;28;20026;-72
2021/01/05 00:52:14;;;;;;;40.22;21.83;;;;;;;-1.49;100.00;95238.25;1023974;29;20259;-71
2021/01/05 00:52:45;;;;;;;34.78;22.67;;;;;;;-1.46;100.00;95233.00;1027941;28;20185;-71
2021/01/05 00:53:16;;;;;;;33.72;21.38;;;;;;;-1.47;100.00;95240.75;1031997;28;20221;-72
2021/01/05 00:53:47;;;;;;;37.83;21.42;;;;;;;-1.47;100.00;95227.91;1036005;28;20501;-71
2021/01/05 00:54:18;;;;;;;34.22;21.35;;;;;;;-1.42;100.00;95241.44;1040145;28;20022;-71
2021/01/05 00:54:49;;;;;;;32.70;20.98;;;;;;;-1.42;100.00;95239.72;1035896;28;20509;-71
2021/01/05 00:55:20;;;;;;;33.08;20.38;;;;;;;-1.43;100.00;95230.31;1023977;28;20259;-71
2021/01/05 00:55:51;;;;;;;33.95;21.40;;;;;;;-1.48;100.00;95239.94;1036086;28;20257;-71
2021/01/05 00:56:21;;;;;;;36.85;21.92;;;;;;;-1.55;100.00;95233.31;1036088;28;20269;-71
2021/01/05 00:57:04;;;;;;;32.90;20.67;;;;;;;-1.50;100.00;95236.59;1036007;28;20121;-71
2021/01/05 00:57:35;;;;;;;31.55;20.63;;;;;;;-1.40;100.00;95237.09;1040191;28;20056;-71
2021/01/05 00:58:06;;;;;;;32.72;21.20;;;;;;;-1.38;100.00;95241.28;1027928;28;20262;-71
2021/01/05 00:58:36;;;;;;;34.53;20.70;;;;;;;-1.41;100.00;95237.97;1036141;28;20105;-71
2021/01/05 00:59:07;;;;;;;36.92;20.98;;;;;;;-1.40;100.00;95234.53;1027840;28;20441;-71
2021/01/05 00:59:38;;;;;;;31.42;20.75;;;;;;;-1.48;100.00;95224.53;1040105;28;20036;-71
2021/01/05 01:00:12;;;;;;;36.28;20.77;;;;;;;-1.48;100.00;95227.09;1036052;28;20079;-71
2021/01/05 01:00:43;;;;;;;33.95;20.85;;;;;;;-1.50;100.00;95231.44;1035991;28;20304;-71
2021/01/05 01:01:14;;;;;;;29.48;19.48;;;;;;;-1.47;100.00;95230.50;1035921;28;20305;-71
2021/01/05 01:01:45;;;;;;;31.48;19.52;;;;;;;-1.50;100.00;95231.44;1032036;28;20022;-71
2021/01/05 01:02:15;;;;;;;30.55;19.25;;;;;;;-1.51;100.00;95229.75;1036086;28;20014;-71
2021/01/05 01:02:49;;;;;;;33.88;21.23;;;;;;;-1.56;100.00;95234.19;1036048;28;20149;-71
2021/01/05 01:03:20;;;;;;;33.22;20.90;;;;;;;-1.63;100.00;95228.47;1031878;28;20030;-71
2021/01/05 01:03:51;;;;;;;29.98;19.85;;;;;;;-1.57;100.00;95237.69;1036020;28;20257;-71
2021/01/05 01:04:22;;;;;;;32.13;20.17;;;;;;;-1.55;100.00;95230.75;1032064;28;20301;-71
2021/01/05 01:04:53;;;;;;;36.08;22.25;;;;;;;-1.57;100.00;95230.81;1035921;28;20030;-71
2021/01/05 01:05:24;;;;;;;30.85;20.10;;;;;;;-1.59;100.00;95234.31;1035907;28;20738;-72
2021/01/05 01:05:54;;;;;;;33.20;20.15;;;;;;;-1.57;100.00;95235.94;1027859;28;20262;-71
2021/01/05 01:06:25;;;;;;;35.13;21.20;;;;;;;-1.60;100.00;95223.19;1032064;28;20618;-71
2021/01/05 01:06:57;;;;;;;32.33;21.20;;;;;;;-1.54;100.00;95229.03;1032077;28;20108;-71
2021/01/05 01:07:29;;;;;;;37.38;22.08;;;;;;;-1.45;100.00;95233.84;1039534;28;20310;-71
2021/01/05 01:08:00;;;;;;;31.80;20.13;;;;;;;-1.52;100.00;95224.66;1044237;28;20267;-72
2021/01/05 01:08:30;;;;;;;32.35;21.40;;;;;;;-1.44;100.00;95225.25;1031978;28;20361;-71
2021/01/05 01:09:01;;;;;;;31.67;20.42;;;;;;;-1.38;100.00;95230.16;1040195;28;20033;-72
2021/01/05 01:09:34;;;;;;;34.60;22.30;;;;;;;-1.40;100.00;95229.38;1035946;28;20033;-72
2021/01/05 01:10:06;;;;;;;35.13;20.92;;;;;;;-1.38;100.00;95227.59;1032000;28;20025;-71
2021/01/05 01:10:38;;;;;;;30.67;20.13;;;;;;;-1.44;100.00;95220.94;1032061;28;20258;-72
2021/01/05 01:11:09;;;;;;;34.28;21.60;;;;;;;-1.42;100.00;95232.00;1044119;28;20256;-72
2021/01/05 01:12:03;;;;;;;32.22;20.70;;;;;;;-1.41;100.00;95233.69;1035970;28;20323;-72
2021/01/05 01:12:34;;;;;;;33.33;20.45;;;;;;;-1.38;100.00;95236.13;1036068;28;20288;-72
2021/01/05 01:13:06;;;;;;;33.83;20.58;;;;;;;-1.35;100.00;95237.78;1036031;28;20260;-72
2021/01/05 01:13:37;;;;;;;33.08;20.90;;;;;;;-1.35;100.00;95229.22;1031890;28;20121;-72
2021/01/05 01:14:08;;;;;;;36.45;19.83;;;;;;;-1.40;100.00;95235.34;1040000;28;20268;-72
2021/01/05 01:14:40;;;;;;;32.00;20.48;;;;;;;-1.45;100.00;95229.53;1040240;28;20271;-71
2021/01/05 01:15:11;;;;;;;31.02;20.08;;;;;;;-1.43;100.00;95229.47;1032065;28;20414;-72
2021/01/05 01:15:42;;;;;;;31.63;20.85;;;;;;;-1.43;100.00;95234.63;1035536;28;20520;-72
2021/01/05 01:16:13;;;;;;;33.10;21.17;;;;;;;-1.45;100.00;95232.09;1031894;28;20312;-72
2021/01/05 01:16:44;;;;;;;32.80;21.27;;;;;;;-1.42;100.00;95231.19;1028035;28;20038;-71
2021/01/05 01:17:15;;;;;;;35.42;21.92;;;;;;;-1.50;100.00;95228.88;1031942;28;20654;-72
2021/01/05 01:17:46;;;;;;;31.13;20.08;;;;;;;-1.44;100.00;95228.66;1035922;28;20056;-71
2021/01/05 01:18:17;;;;;;;32.92;21.58;;;;;;;-1.42;100.00;95228.59;1028064;28;20272;-72
2021/01/05 01:18:47;;;;;;;35.85;20.73;;;;;;;-1.46;100.00;95232.19;1036206;28;20030;-71
2021/01/05 01:19:19;;;;;;;31.90;19.58;;;;;;;-1.50;100.00;95228.88;1032075;28;20514;-71
2021/01/05 01:19:51;;;;;;;34.97;20.77;;;;;;;-1.50;100.00;95230.59;1036012;28;20101;-72
2021/01/05 01:20:22;;;;;;;32.13;21.08;;;;;;;-1.53;100.00;95231.53;1035945;28;20260;-71
2021/01/05 01:20:52;;;;;;;31.73;20.63;;;;;;;-1.54;100.00;95234.97;1036064;28;20253;-71
2021/01/05 01:21:23;;;;;;;30.38;18.80;;;;;;;-1.55;100.00;95228.19;1032024;28;20146;-71
2021/01/05 01:21:55;;;;;;;31.77;20.63;;;;;;;-1.62;100.00;95224.97;1036014;28;20022;-72
2021/01/05 01:22:25;;;;;;;33.33;21.95;;;;;;;-1.63;100.00;95222.50;1040043;28;20021;-72
2021/01/05 01:22:56;;;;;;;33.78;20.45;;;;;;;-1.51;100.00;95229.75;1032023;28;20253;-71
2021/01/05 01:23:27;;;;;;;31.38;19.90;;;;;;;-1.55;100.00;95227.34;1028004;28;20117;-72
2021/01/05 01:23:58;;;;;;;33.50;21.63;;;;;;;-1.57;100.00;95228.22;1027912;28;20356;-72
2021/01/05 01:24:29;;;;;;;34.65;21.02;;;;;;;-1.51;100.00;95232.31;1031799;28;20037;-71
2021/01/05 01:25:00;;;;;;;33.50;20.63;;;;;;;-1.58;100.00;95224.00;1031849;28;20479;-71
2021/01/05 01:25:31;;;;;;;30.00;20.30;;;;;;;-1.47;100.00;95226.19;1036000;28;20103;-72
2021/01/05 01:26:01;;;;;;;32.35;20.85;;;;;;;-1.44;100.00;95222.69;1027881;28;20278;-72
2021/01/05 01:26:32;;;;;;;35.55;22.67;;;;;;;-1.43;100.00;95226.91;1023957;29;20023;-72
2021/01/05 01:27:03;;;;;;;32.90;21.95;;;;;;;-1.43;100.00;95230.31;1036027;28;20034;-72
2021/01/05 01:27:34;;;;;;;33.55;21.20;;;;;;;-1.44;100.00;95226.09;1032018;28;20403;-72
2021/01/05 01:28:05;;;;;;;30.60;18.77;;;;;;;-1.49;100.00;95230.53;1024118;29;20038;-71
2021/01/05 01:28:37;;;;;;;32.30;20.83;;;;;;;-1.50;100.00;95226.31;1027929;28;20130;-71
2021/01/05 01:29:08;;;;;;;33.85;21.02;;;;;;;-1.47;100.00;95230.50;1028084;28;20022;-71
2021/01/05 01:29:39;;;;;;;35.90;21.35;;;;;;;-1.50;100.00;95226.31;1040257;28;20359;-71
2021/01/05 01:30:10;;;;;;;33.00;20.88;;;;;;;-1.51;100.00;95229.75;1035918;28;20025;-71
2021/01/05 01:30:41;;;;;;;32.33;20.55;;;;;;;-1.50;100.00;95231.44;1040101;28;20272;-71
2021/01/05 01:31:12;;;;;;;32.03;20.48;;;;;;;-1.51;100.00;95231.50;1036185;28;20269;-71
2021/01/05 01:31:43;;;;;;;37.53;21.75;;;;;;;-1.49;100.00;95227.97;1035953;28;20031;-72
2021/01/05 01:32:14;;;;;;;32.75;20.58;;;;;;;-1.51;100.00;95234.06;1035873;28;20029;-72
2021/01/05 01:32:45;;;;;;;34.20;20.80;;;;;;;-1.45;100.00;95234.66;1035999;28;20030;-72
2021/01/05 01:33:16;;;;;;;32.03;21.00;;;;;;;-1.51;100.00;95227.19;1036036;28;20276;-71
2021/01/05 01:33:47;;;;;;;34.85;22.52;;;;;;;-1.51;100.00;95232.31;1036056;28;20756;-71
2021/01/05 01:34:19;;;;;;;33.33;20.45;;;;;;;-1.50;100.00;95234.00;1027949;28;20030;-72
2021/01/05 01:34:50;;;;;;;34.60;22.05;;;;;;;-1.54;100.00;95224.72;1035873;28;20026;-72
2021/01/05 01:35:21;;;;;;;31.40;21.17;;;;;;;-1.47;100.00;95233.88;1036069;28;20288;-72
2021/01/05 01:35:52;;;;;;;28.67;19.75;;;;;;;-1.40;100.00;95229.38;1036110;28;20018;-71
2021/01/05 01:36:22;;;;;;;34.42;22.05;;;;;;;-1.45;100.00;95234.66;1031929;28;20042;-71
2021/01/05 01:36:56;;;;;;;31.90;20.85;;;;;;;-1.48;100.00;95234.78;1031898;28;20439;-71
2021/01/05 01:37:27;;;;;;;30.27;20.48;;;;;;;-1.59;100.00;95229.19;1027974;28;20262;-71
2021/01/05 01:37:58;;;;;;;32.92;21.25;;;;;;;-1.60;100.00;95220.63;1036021;28;20296;-71
2021/01/05 01:38:28;;;;;;;31.40;21.23;;;;;;;-1.54;100.00;95239.28;1023993;28;20023;-71
2021/01/05 01:39:00;;;;;;;31.48;20.83;;;;;;;-1.64;100.00;95231.06;1031793;28;20050;-71
2021/01/05 01:39:31;;;;;;;32.72;21.10;;;;;;;-1.60;100.00;95230.91;1040127;28;20025;-71
2021/01/05 01:40:04;;;;;;;31.15;20.13;;;;;;;-1.54;100.00;95234.16;1028104;28;20702;-72
2021/01/05 01:40:37;;;;;;;30.92;20.33;;;;;;;-1.59;100.00;95224.88;1023853;28;20070;-71
2021/01/05 01:41:07;;;;;;;34.38;20.52;;;;;;;-1.49;100.00;95229.72;1032114;28;20272;-72
2021/01/05 01:41:38;;;;;;;30.77;20.70;;;;;;;-1.54;100.00;95226.44;1031987;28;20284;-72
2021/01/05 01:42:09;;;;;;;32.03;20.08;;;;;;;-1.57;100.00;95229.97;1031944;28;20034;-72
2021/01/05 01:42:40;;;;;;;30.02;20.10;;;;;;;-1.57;100.00;95233.38;1040087;28;20397;-72
2021/01/05 01:43:12;;;;;;;29.77;20.17;;;;;;;-1.64;100.00;95224.19;1035892;28;20272;-71
2021/01/05 01:43:42;;;;;;;36.03;21.42;;;;;;;-1.65;100.00;95231.94;1040186;28;20279;-71
2021/01/05 01:44:24;;;;;;;33.22;20.48;;;;;;;-1.61;100.00;95229.25;1040063;28;20263;-72
2021/01/05 01:44:54;;;;;;;31.73;19.80;;;;;;;-1.61;100.00;95226.66;1035703;28;20025;-72
2021/01/05 01:45:25;;;;;;;29.40;20.65;;;;;;;-1.62;100.00;95227.53;1036023;28;20260;-72
2021/01/05 01:45:56;;;;;;;31.80;20.60;;;;;;;-1.62;100.00;95230.13;1039510;28;20124;-71
2021/01/05 01:46:33;;;;;;;35.88;20.70;;;;;;;-1.59;100.00;95230.03;1035677;28;20046;-71
2021/01/05 01:47:16;;;;;;;30.90;20.10;;;;;;;-1.53;100.00;95220.44;1035965;28;20024;-72
2021/01/05 01:47:47;;;;;;;28.75;20.20;;;;;;;-1.53;100.00;95223.84;1035998;28;20318;-72
2021/01/05 01:48:18;;;;;;;31.20;21.20;;;;;;;-1.50;100.00;95221.16;1032046;28;20308;-71
2021/01/05 01:48:49;;;;;;;31.05;19.33;;;;;;;-1.50;100.00;95225.44;1035983;28;20018;-72
2021/01/05 01:49:20;;;;;;;32.45;22.15;;;;;;;-1.51;100.00;95222.03;1035924;28;20064;-72
2021/01/05 01:49:54;;;;;;;34.75;21.40;;;;;;;-1.51;100.00;95223.78;1040027;28;20018;-72
2021/01/05 01:50:27;;;;;;;31.17;19.67;;;;;;;-1.52;100.00;95228.09;1044160;28;20761;-72
2021/01/05 01:51:05;;;;;;;28.70;19.73;;;;;;;-1.56;100.00;95221.38;1035839;28;20265;-71
2021/01/05 01:51:36;;;;;;;29.58;20.73;;;;;;;-1.56;100.00;95223.94;1035859;28;20268;-71
2021/01/05 01:52:07;;;;;;;32.30;19.55;;;;;;;-1.54;100.00;95227.28;1036036;28;20261;-71
2021/01/05 01:52:48;;;;;;;31.80;20.50;;;;;;;-1.51;100.00;95224.63;1027812;28;20061;-72
2021/01/05 01:53:28;;;;;;;;;;;;;;;-1.48;100.00;95221.94;1044440;28;20841;-71
2021/01/05 01:54:05;;;;;;;29.88;18.20;;;;;;;-1.48;100.00;95223.66;1031953;28;19910;-72
2021/01/05 01:54:54;;;;;;;28.80;19.70;;;;;;;-1.49;100.00;95215.13;1036020;28;20109;-71
2021/01/05 01:55:44;;;;;;;31.77;19.55;;;;;;;-1.50;100.00;95218.59;1035849;28;20272;-72
2021/01/05 01:56:15;;;;;;;;;;;;;;;-1.45;100.00;95223.56;1033552;28;20316;-72
2021/01/05 01:57:03;;;;;;;32.35;19.50;;;;;;;-1.46;100.00;95216.75;1031915;28;20370;-72
2021/01/05 01:57:53;;;;;;;30.30;19.48;;;;;;;-1.43;100.00;95222.59;1044041;28;20032;-72
2021/01/05 01:58:43;;;;;;;32.05;19.67;;;;;;;-1.51;100.00;95223.78;1035835;28;20269;-71
2021/01/05 01:59:27;;;;;;;31.25;19.23;;;;;;;-1.46;100.00;95217.59;1023939;28;20555;-72
2021/01/05 02:00:15;;;;;;;30.94;19.04;;;;;;;-1.57;100.00;95194.00;1035935;28;20101;-72
2021/01/05 02:01:00;;;;;;;31.55;19.02;;;;;;;-1.47;100.00;95218.47;1031941;28;20085;-72
2021/01/05 02:01:44;;;;;;;31.02;18.80;;;;;;;-1.48;100.00;95219.38;1035736;28;20306;-72
2021/01/05 02:02:14;;;;;;;31.50;20.90;;;;;;;-1.46;100.00;95219.34;1035789;28;20265;-72
2021/01/05 02:03:03;;;;;;;33.15;21.88;;;;;;;-1.49;100.00;95222.81;1044170;28;20340;-72
2021/01/05 02:03:38;;;;;;;28.50;19.35;;;;;;;-1.50;100.00;95216.03;1035841;28;20044;-72
2021/01/05 02:04:28;;;;;;;33.20;20.77;;;;;;;-1.60;100.00;95217.22;1023913;28;20255;-72
2021/01/05 02:05:09;;;;;;;31.70;20.00;;;;;;;-1.53;100.00;95217.88;1031753;28;20282;-72
2021/01/05 02:05:53;;;;;;;33.15;20.40;;;;;;;-1.49;100.00;95220.25;1031845;28;20046;-72
2021/01/05 02:06:42;;;;;;;32.78;20.65;;;;;;;-1.57;100.00;95214.56;1035949;28;20261;-72
2021/01/05 02:07:29;;;;;;;29.23;19.05;;;;;;;-1.56;100.00;95203.38;1031840;28;20815;-71
2021/01/05 02:08:17;;;;;;;32.02;20.42;;;;;;;-1.45;100.00;95221.81;1027887;28;20259;-72
2021/01/05 02:08:58;;;;;;;31.38;20.08;;;;;;;-1.51;100.00;95222.03;1031922;28;20085;-71
2021/01/05 02:09:48;;;;;;;32.60;20.54;;;;;;;-1.52;100.00;95222.97;1034595;28;20292;-70
2021/01/05 02:10:29;;;;;;;29.45;18.95;;;;;;;-1.65;100.00;95212.25;1037180;28;20052;-72
2021/01/05 02:11:09;;;;;;;30.72;19.60;;;;;;;-1.59;100.00;95221.50;1033877;28;20109;-72
2021/01/05 02:11:45;;;;;;;32.17;20.25;;;;;;;-1.56;100.00;95218.78;1036061;28;20034;-72
2021/01/05 02:12:35;;;;;;;31.66;20.12;;;;;;;-1.59;100.00;95216.34;1031936;28;20037;-72
2021/01/05 02:13:16;;;;;;;;;;;;;;;-1.46;100.00;95227.88;1032446;28;20026;-71
2021/01/05 02:14:00;;;;;;;29.73;18.50;;;;;;;-1.57;100.00;95219.69;1031831;28;19978;-72
2021/01/05 02:14:50;;;;;;;30.30;20.00;;;;;;;-1.65;100.00;95202.00;1035677;28;20116;-71
2021/01/05 02:15:30;;;;;;;;;;;;;;;-1.49;100.00;95224.56;1032396;28;20273;-71
2021/01/05 02:16:10;;;;;;;30.82;18.72;;;;;;;-1.53;100.00;95218.69;1031691;28;19944;-71
2021/01/05 02:17:01;;;;;;;26.48;16.77;;;;;;;-1.52;100.00;95220.38;1035847;28;20038;-72
2021/01/05 02:17:54;;;;;;;23.45;15.70;;;;;;;-1.52;100.00;95217.81;1039985;28;20268;-72
2021/01/05 02:18:41;;;;;;;23.40;15.05;;;;;;;-1.52;100.00;95224.66;1039976;28;20101;-72
2021/01/05 02:19:15;;;;;;;24.72;15.28;;;;;;;-1.51;100.00;95228.94;1031741;28;20341;-71
2021/01/05 02:19:49;;;;;;;21.70;14.85;;;;;;;-1.49;100.00;95219.44;1031701;28;20029;-72
2021/01/05 02:20:23;;;;;;;24.36;16.00;;;;;;;-1.46;100.00;95230.44;1031688;28;20269;-72
2021/01/05 02:20:56;;;;;;;20.85;14.63;;;;;;;-1.50;100.00;95205.75;1035983;28;20033;-72
2021/01/05 02:21:31;;;;;;;24.58;16.45;;;;;;;-1.41;100.00;95223.41;1039923;28;20790;-72
2021/01/05 02:22:20;;;;;;;22.40;15.43;;;;;;;-1.40;100.00;95222.50;1031868;28;20784;-71
2021/01/05 02:23:10;;;;;;;22.83;15.20;;;;;;;-1.42;100.00;95229.44;1031658;28;20309;-72
2021/01/05 02:24:01;;;;;;;22.05;14.85;;;;;;;-1.43;100.00;95232.88;1027873;28;20285;-72
2021/01/05 02:24:45;;;;;;;20.40;14.40;;;;;;;-1.57;100.00;95225.66;1035637;28;20049;-72
2021/01/05 02:25:23;;;;;;;19.23;13.52;;;;;;;-1.57;100.00;95224.84;1031701;28;20292;-72
2021/01/05 02:26:06;;;;;;;18.33;12.90;;;;;;;-1.51;100.00;95224.63;1036000;28;20355;-72
2021/01/05 02:26:50;;;;;;;20.85;13.40;;;;;;;-1.44;100.00;95225.25;1035808;28;20340;-72
2021/01/05 02:27:21;;;;;;;21.45;14.25;;;;;;;-1.46;100.00;95227.88;1031885;28;20275;-72
2021/01/05 02:27:55;;;;;;;19.38;13.73;;;;;;;-1.44;100.00;95226.09;1027749;28;20273;-72
2021/01/05 02:28:38;;;;;;;20.02;13.95;;;;;;;-1.50;100.00;95208.31;1035615;28;20026;-71
2021/01/05 02:29:13;;;;;;;21.10;13.32;;;;;;;-1.44;100.00;95214.97;1031709;28;20823;-72
2021/01/05 02:29:47;;;;;;;17.65;13.13;;;;;;;-1.46;100.00;95217.59;1027754;28;20097;-72
2021/01/05 02:30:23;;;;;;;20.42;13.68;;;;;;;-1.51;100.00;95221.22;1035981;28;20268;-72
2021/01/05 02:31:00;;;;;;;19.08;13.98;;;;;;;-1.48;100.00;95221.94;1027707;28;20289;-72
2021/01/05 02:31:43;;;;;;;19.38;13.80;;;;;;;-1.52;100.00;95214.38;1031804;28;20262;-71
2021/01/05 02:32:27;;;;;;;21.08;14.40;;;;;;;-1.49;100.00;95209.97;1039920;28;20780;-72
2021/01/05 02:33:18;;;;;;;21.26;14.52;;;;;;;-1.48;100.00;95216.81;1031507;28;20353;-72
2021/01/05 02:33:52;;;;;;;21.42;14.00;;;;;;;-1.51;100.00;95211.78;1027610;28;20117;-71
2021/01/05 02:34:37;;;;;;;18.67;13.43;;;;;;;-1.54;100.00;95209.28;1031761;28;20698;-71